sensor_id;sensor_type;location;lat;lon;timestamp;P1;durP1;ratioP1;P2;durP2;ratioP2
19301;SDS011;9785;59.362;12.152;2022-09-12T00:01:15;2.00;;;1.90;;
19301;SDS011;9785;59.362;12.152;2022-09-12T00:03:45;2.07;;;1.97;;
19301;SDS011;9785;59.362;12.152;2022-09-12T00:06:15;2.40;;;2.20;;
19301;SDS011;9785;59.362;12.152;2022-09-12T00:08:49;2.30;;;2.20;;
19301;SDS011;9785;59.362;12.152;2022-09-12T00:11:18;1.87;;;1.87;;
19301;SDS011;9785;59.362;12.152;2022-09-12T00:13:47;4.17;;;1.90;;
19301;SDS011;9785;59.362;12.152;2022-09-12T00:16:16;2.07;;;1.80;;
19301;SDS011;9785;59.362;12.152;2022-09-12T00:18:45;1.90;;;1.80;;
19301;SDS011;9785;59.362;12.152;2022-09-12T00:21:13;3.73;;;1.80;;
19301;SDS011;9785;59.362;12.152;2022-09-12T00:23:42;2.93;;;1.80;;
19301;SDS011;9785;59.362;12.152;2022-09-12T00:26:12;5.40;;;2.10;;
19301;SDS011;9785;59.362;12.152;2022-09-12T00:28:41;2.00;;;1.90;;
19301;SDS011;9785;59.362;12.152;2022-09-12T00:31:10;2.80;;;1.97;;
19301;SDS011;9785;59.362;12.152;2022-09-12T00:33:39;3.00;;;2.57;;
19301;SDS011;9785;59.362;12.152;2022-09-12T00:36:09;2.17;;;2.07;;
19301;SDS011;9785;59.362;12.152;2022-09-12T00:38:38;2.40;;;2.20;;
19301;SDS011;9785;59.362;12.152;2022-09-12T00:41:09;2.67;;;2.13;;
19301;SDS011;9785;59.362;12.152;2022-09-12T00:43:42;2.83;;;1.77;;
19301;SDS011;9785;59.362;12.152;2022-09-12T00:46:13;3.07;;;1.53;;
19301;SDS011;9785;59.362;12.152;2022-09-12T00:48:43;1.93;;;1.90;;
19301;SDS011;9785;59.362;12.152;2022-09-12T00:51:13;2.13;;;2.03;;
19301;SDS011;9785;59.362;12.152;2022-09-12T00:53:42;3.83;;;1.90;;
19301;SDS011;9785;59.362;12.152;2022-09-12T00:56:11;2.20;;;2.10;;
19301;SDS011;9785;59.362;12.152;2022-09-12T00:58:43;2.13;;;2.03;;
19301;SDS011;9785;59.362;12.152;2022-09-12T01:01:15;2.03;;;1.93;;
19301;SDS011;9785;59.362;12.152;2022-09-12T01:03:43;1.90;;;1.80;;
19301;SDS011;9785;59.362;12.152;2022-09-12T01:06:13;2.00;;;1.90;;
19301;SDS011;9785;59.362;12.152;2022-09-12T01:08:43;2.10;;;2.00;;
19301;SDS011;9785;59.362;12.152;2022-09-12T01:11:14;1.87;;;1.83;;
19301;SDS011;9785;59.362;12.152;2022-09-12T01:13:44;2.20;;;2.00;;
19301;SDS011;9785;59.362;12.152;2022-09-12T01:16:13;1.70;;;1.60;;
19301;SDS011;9785;59.362;12.152;2022-09-12T01:18:54;4.47;;;1.83;;
19301;SDS011;9785;59.362;12.152;2022-09-12T01:21:29;1.90;;;1.80;;
19301;SDS011;9785;59.362;12.152;2022-09-12T01:24:07;2.20;;;1.90;;
19301;SDS011;9785;59.362;12.152;2022-09-12T01:26:52;1.43;;;1.43;;
19301;SDS011;9785;59.362;12.152;2022-09-12T01:29:29;2.20;;;2.00;;
19301;SDS011;9785;59.362;12.152;2022-09-12T01:32:02;2.20;;;2.00;;
19301;SDS011;9785;59.362;12.152;2022-09-12T01:34:34;3.13;;;2.10;;
19301;SDS011;9785;59.362;12.152;2022-09-12T01:37:07;2.63;;;2.20;;
19301;SDS011;9785;59.362;12.152;2022-09-12T01:39:42;2.00;;;1.90;;
19301;SDS011;9785;59.362;12.152;2022-09-12T01:42:17;2.33;;;2.13;;
19301;SDS011;9785;59.362;12.152;2022-09-12T01:44:48;2.00;;;1.90;;
19301;SDS011;9785;59.362;12.152;2022-09-12T01:47:25;3.77;;;1.97;;
19301;SDS011;9785;59.362;12.152;2022-09-12T01:49:57;1.90;;;1.80;;
19301;SDS011;9785;59.362;12.152;2022-09-12T01:52:28;2.40;;;2.20;;
19301;SDS011;9785;59.362;12.152;2022-09-12T01:54:59;2.20;;;2.10;;
19301;SDS011;9785;59.362;12.152;2022-09-12T01:57:37;2.37;;;2.17;;
19301;SDS011;9785;59.362;12.152;2022-09-12T02:00:08;3.60;;;2.20;;
19301;SDS011;9785;59.362;12.152;2022-09-12T02:02:39;6.30;;;2.10;;
19301;SDS011;9785;59.362;12.152;2022-09-12T02:05:09;2.27;;;2.10;;
19301;SDS011;9785;59.362;12.152;2022-09-12T02:07:39;2.10;;;2.00;;
19301;SDS011;9785;59.362;12.152;2022-09-12T02:10:12;2.10;;;2.00;;
19301;SDS011;9785;59.362;12.152;2022-09-12T02:12:43;2.00;;;1.80;;
19301;SDS011;9785;59.362;12.152;2022-09-12T02:15:14;2.47;;;2.30;;
19301;SDS011;9785;59.362;12.152;2022-09-12T02:17:45;2.40;;;2.30;;
19301;SDS011;9785;59.362;12.152;2022-09-12T02:20:15;3.13;;;2.00;;
19301;SDS011;9785;59.362;12.152;2022-09-12T02:23:05;3.10;;;2.90;;
19301;SDS011;9785;59.362;12.152;2022-09-12T02:25:36;2.00;;;1.90;;
19301;SDS011;9785;59.362;12.152;2022-09-12T02:28:05;1.93;;;1.83;;
19301;SDS011;9785;59.362;12.152;2022-09-12T02:30:36;2.10;;;2.00;;
19301;SDS011;9785;59.362;12.152;2022-09-12T02:33:09;2.07;;;2.00;;
19301;SDS011;9785;59.362;12.152;2022-09-12T02:35:44;2.87;;;2.40;;
19301;SDS011;9785;59.362;12.152;2022-09-12T02:38:15;2.17;;;2.07;;
19301;SDS011;9785;59.362;12.152;2022-09-12T02:40:46;2.70;;;2.37;;
19301;SDS011;9785;59.362;12.152;2022-09-12T02:43:15;2.10;;;2.00;;
19301;SDS011;9785;59.362;12.152;2022-09-12T02:45:44;6.50;;;2.90;;
19301;SDS011;9785;59.362;12.152;2022-09-12T02:48:14;4.33;;;2.30;;
19301;SDS011;9785;59.362;12.152;2022-09-12T02:50:44;2.63;;;2.43;;
19301;SDS011;9785;59.362;12.152;2022-09-12T02:53:13;2.83;;;2.33;;
19301;SDS011;9785;59.362;12.152;2022-09-12T02:55:41;3.10;;;2.50;;
19301;SDS011;9785;59.362;12.152;2022-09-12T02:58:10;2.60;;;2.30;;
19301;SDS011;9785;59.362;12.152;2022-09-12T03:00:41;2.87;;;2.53;;
19301;SDS011;9785;59.362;12.152;2022-09-12T03:06:00;2.47;;;2.27;;
19301;SDS011;9785;59.362;12.152;2022-09-12T03:08:34;2.90;;;2.70;;
19301;SDS011;9785;59.362;12.152;2022-09-12T03:13:53;2.60;;;2.50;;
19301;SDS011;9785;59.362;12.152;2022-09-12T03:16:31;3.43;;;2.70;;
19301;SDS011;9785;59.362;12.152;2022-09-12T03:19:02;3.77;;;2.93;;
19301;SDS011;9785;59.362;12.152;2022-09-12T03:21:38;2.90;;;2.70;;
19301;SDS011;9785;59.362;12.152;2022-09-12T03:24:10;3.00;;;2.70;;
19301;SDS011;9785;59.362;12.152;2022-09-12T03:26:41;5.20;;;3.10;;
19301;SDS011;9785;59.362;12.152;2022-09-12T03:29:10;3.03;;;2.83;;
19301;SDS011;9785;59.362;12.152;2022-09-12T03:31:47;2.83;;;2.63;;
19301;SDS011;9785;59.362;12.152;2022-09-12T03:34:16;2.87;;;2.67;;
19301;SDS011;9785;59.362;12.152;2022-09-12T03:36:46;3.60;;;2.67;;
19301;SDS011;9785;59.362;12.152;2022-09-12T03:39:15;3.10;;;2.80;;
19301;SDS011;9785;59.362;12.152;2022-09-12T03:41:43;3.13;;;2.80;;
19301;SDS011;9785;59.362;12.152;2022-09-12T03:44:12;3.20;;;3.00;;
19301;SDS011;9785;59.362;12.152;2022-09-12T03:46:40;6.23;;;3.00;;
19301;SDS011;9785;59.362;12.152;2022-09-12T03:49:09;5.67;;;3.20;;
19301;SDS011;9785;59.362;12.152;2022-09-12T03:51:37;4.63;;;3.43;;
19301;SDS011;9785;59.362;12.152;2022-09-12T03:54:07;7.17;;;3.63;;
19301;SDS011;9785;59.362;12.152;2022-09-12T03:56:36;9.00;;;4.20;;
19301;SDS011;9785;59.362;12.152;2022-09-12T03:59:07;8.20;;;4.20;;
19301;SDS011;9785;59.362;12.152;2022-09-12T04:01:35;8.20;;;4.33;;
19301;SDS011;9785;59.362;12.152;2022-09-12T04:04:04;8.43;;;4.03;;
19301;SDS011;9785;59.362;12.152;2022-09-12T04:06:32;8.90;;;4.37;;
19301;SDS011;9785;59.362;12.152;2022-09-12T04:09:01;8.20;;;4.80;;
19301;SDS011;9785;59.362;12.152;2022-09-12T04:11:31;8.27;;;4.17;;
19301;SDS011;9785;59.362;12.152;2022-09-12T04:14:01;8.67;;;4.10;;
19301;SDS011;9785;59.362;12.152;2022-09-12T04:16:29;4.37;;;3.90;;
19301;SDS011;9785;59.362;12.152;2022-09-12T04:18:58;8.17;;;4.47;;
19301;SDS011;9785;59.362;12.152;2022-09-12T04:21:27;9.53;;;4.63;;
19301;SDS011;9785;59.362;12.152;2022-09-12T04:23:56;4.63;;;4.17;;
19301;SDS011;9785;59.362;12.152;2022-09-12T04:26:24;7.60;;;3.97;;
19301;SDS011;9785;59.362;12.152;2022-09-12T04:28:56;8.90;;;4.10;;
19301;SDS011;9785;59.362;12.152;2022-09-12T04:31:25;6.27;;;4.57;;
19301;SDS011;9785;59.362;12.152;2022-09-12T04:33:54;7.90;;;4.40;;
19301;SDS011;9785;59.362;12.152;2022-09-12T04:36:23;4.67;;;3.97;;
19301;SDS011;9785;59.362;12.152;2022-09-12T04:38:52;8.13;;;4.67;;
19301;SDS011;9785;59.362;12.152;2022-09-12T04:41:21;7.13;;;4.37;;
19301;SDS011;9785;59.362;12.152;2022-09-12T04:43:51;9.10;;;4.73;;
19301;SDS011;9785;59.362;12.152;2022-09-12T04:46:21;4.90;;;4.33;;
19301;SDS011;9785;59.362;12.152;2022-09-12T04:48:49;9.13;;;4.90;;
19301;SDS011;9785;59.362;12.152;2022-09-12T04:51:23;8.57;;;4.17;;
19301;SDS011;9785;59.362;12.152;2022-09-12T04:53:54;8.33;;;4.57;;
19301;SDS011;9785;59.362;12.152;2022-09-12T04:56:23;5.20;;;4.70;;
19301;SDS011;9785;59.362;12.152;2022-09-12T04:58:52;4.90;;;4.30;;
19301;SDS011;9785;59.362;12.152;2022-09-12T05:01:22;5.10;;;4.60;;
19301;SDS011;9785;59.362;12.152;2022-09-12T05:03:50;5.47;;;4.77;;
19301;SDS011;9785;59.362;12.152;2022-09-12T05:06:20;7.77;;;5.23;;
19301;SDS011;9785;59.362;12.152;2022-09-12T05:08:49;7.33;;;5.60;;
19301;SDS011;9785;59.362;12.152;2022-09-12T05:11:18;7.47;;;4.80;;
19301;SDS011;9785;59.362;12.152;2022-09-12T05:13:53;7.67;;;4.80;;
19301;SDS011;9785;59.362;12.152;2022-09-12T05:16:24;8.90;;;4.93;;
19301;SDS011;9785;59.362;12.152;2022-09-12T05:18:52;8.30;;;4.93;;
19301;SDS011;9785;59.362;12.152;2022-09-12T05:21:23;5.27;;;4.73;;
19301;SDS011;9785;59.362;12.152;2022-09-12T05:23:52;8.00;;;5.50;;
19301;SDS011;9785;59.362;12.152;2022-09-12T05:26:21;7.50;;;4.40;;
19301;SDS011;9785;59.362;12.152;2022-09-12T05:28:50;6.77;;;4.63;;
19301;SDS011;9785;59.362;12.152;2022-09-12T05:31:19;9.40;;;4.60;;
19301;SDS011;9785;59.362;12.152;2022-09-12T05:33:50;6.00;;;4.77;;
19301;SDS011;9785;59.362;12.152;2022-09-12T05:36:20;4.80;;;4.23;;
19301;SDS011;9785;59.362;12.152;2022-09-12T05:38:49;9.97;;;4.63;;
19301;SDS011;9785;59.362;12.152;2022-09-12T05:41:18;7.97;;;4.53;;
19301;SDS011;9785;59.362;12.152;2022-09-12T05:43:51;7.93;;;4.40;;
19301;SDS011;9785;59.362;12.152;2022-09-12T05:46:20;9.67;;;4.40;;
19301;SDS011;9785;59.362;12.152;2022-09-12T05:48:50;4.70;;;4.00;;
19301;SDS011;9785;59.362;12.152;2022-09-12T05:51:23;5.70;;;4.30;;
19301;SDS011;9785;59.362;12.152;2022-09-12T05:53:52;5.27;;;4.03;;
19301;SDS011;9785;59.362;12.152;2022-09-12T05:56:21;4.20;;;3.80;;
19301;SDS011;9785;59.362;12.152;2022-09-12T05:58:51;3.90;;;3.60;;
19301;SDS011;9785;59.362;12.152;2022-09-12T06:01:20;4.53;;;4.07;;
19301;SDS011;9785;59.362;12.152;2022-09-12T06:03:51;4.20;;;3.80;;
19301;SDS011;9785;59.362;12.152;2022-09-12T06:06:21;5.43;;;4.27;;
19301;SDS011;9785;59.362;12.152;2022-09-12T06:08:51;5.00;;;3.90;;
19301;SDS011;9785;59.362;12.152;2022-09-12T06:11:21;4.00;;;3.57;;
19301;SDS011;9785;59.362;12.152;2022-09-12T06:13:50;4.83;;;3.87;;
19301;SDS011;9785;59.362;12.152;2022-09-12T06:16:20;4.10;;;3.33;;
19301;SDS011;9785;59.362;12.152;2022-09-12T06:18:52;4.03;;;3.60;;
19301;SDS011;9785;59.362;12.152;2022-09-12T06:21:21;3.57;;;3.23;;
19301;SDS011;9785;59.362;12.152;2022-09-12T06:23:51;3.40;;;3.10;;
19301;SDS011;9785;59.362;12.152;2022-09-12T06:26:20;3.40;;;3.20;;
19301;SDS011;9785;59.362;12.152;2022-09-12T06:28:51;3.33;;;3.00;;
19301;SDS011;9785;59.362;12.152;2022-09-12T06:31:20;3.10;;;2.90;;
19301;SDS011;9785;59.362;12.152;2022-09-12T06:33:52;3.70;;;2.67;;
19301;SDS011;9785;59.362;12.152;2022-09-12T06:36:22;3.07;;;2.87;;
19301;SDS011;9785;59.362;12.152;2022-09-12T06:38:54;2.97;;;2.77;;
19301;SDS011;9785;59.362;12.152;2022-09-12T06:41:23;2.97;;;2.63;;
19301;SDS011;9785;59.362;12.152;2022-09-12T06:43:52;3.67;;;2.80;;
19301;SDS011;9785;59.362;12.152;2022-09-12T06:46:21;2.93;;;2.73;;
19301;SDS011;9785;59.362;12.152;2022-09-12T06:48:50;4.57;;;2.70;;
19301;SDS011;9785;59.362;12.152;2022-09-12T06:51:20;3.80;;;2.57;;
19301;SDS011;9785;59.362;12.152;2022-09-12T06:53:48;2.43;;;2.33;;
19301;SDS011;9785;59.362;12.152;2022-09-12T06:56:18;2.40;;;2.30;;
19301;SDS011;9785;59.362;12.152;2022-09-12T06:58:47;2.30;;;2.20;;
19301;SDS011;9785;59.362;12.152;2022-09-12T07:01:16;2.30;;;2.20;;
19301;SDS011;9785;59.362;12.152;2022-09-12T07:03:47;2.53;;;2.33;;
19301;SDS011;9785;59.362;12.152;2022-09-12T07:06:17;2.80;;;2.47;;
19301;SDS011;9785;59.362;12.152;2022-09-12T07:08:47;3.17;;;2.43;;
19301;SDS011;9785;59.362;12.152;2022-09-12T07:11:17;2.50;;;2.30;;
19301;SDS011;9785;59.362;12.152;2022-09-12T07:13:47;2.23;;;2.10;;
19301;SDS011;9785;59.362;12.152;2022-09-12T07:16:16;2.33;;;2.20;;
19301;SDS011;9785;59.362;12.152;2022-09-12T07:18:48;5.40;;;2.30;;
19301;SDS011;9785;59.362;12.152;2022-09-12T07:21:17;3.30;;;2.00;;
19301;SDS011;9785;59.362;12.152;2022-09-12T07:23:47;2.20;;;1.80;;
19301;SDS011;9785;59.362;12.152;2022-09-12T07:26:17;2.03;;;1.83;;
19301;SDS011;9785;59.362;12.152;2022-09-12T07:28:49;1.90;;;1.80;;
19301;SDS011;9785;59.362;12.152;2022-09-12T07:31:18;1.77;;;1.67;;
19301;SDS011;9785;59.362;12.152;2022-09-12T07:33:47;2.17;;;1.77;;
19301;SDS011;9785;59.362;12.152;2022-09-12T07:36:20;2.00;;;1.90;;
19301;SDS011;9785;59.362;12.152;2022-09-12T07:38:56;2.00;;;1.80;;
19301;SDS011;9785;59.362;12.152;2022-09-12T07:41:25;2.13;;;1.90;;
19301;SDS011;9785;59.362;12.152;2022-09-12T07:43:55;1.83;;;1.73;;
19301;SDS011;9785;59.362;12.152;2022-09-12T07:46:24;1.70;;;1.67;;
19301;SDS011;9785;59.362;12.152;2022-09-12T07:48:53;3.27;;;1.97;;
19301;SDS011;9785;59.362;12.152;2022-09-12T07:51:23;1.80;;;1.70;;
19301;SDS011;9785;59.362;12.152;2022-09-12T07:53:51;1.80;;;1.70;;
19301;SDS011;9785;59.362;12.152;2022-09-12T07:56:23;1.93;;;1.70;;
19301;SDS011;9785;59.362;12.152;2022-09-12T07:58:57;1.70;;;1.60;;
19301;SDS011;9785;59.362;12.152;2022-09-12T08:01:25;2.60;;;1.67;;
19301;SDS011;9785;59.362;12.152;2022-09-12T08:03:55;2.20;;;1.60;;
19301;SDS011;9785;59.362;12.152;2022-09-12T08:06:24;2.27;;;1.70;;
19301;SDS011;9785;59.362;12.152;2022-09-12T08:08:53;1.80;;;1.70;;
19301;SDS011;9785;59.362;12.152;2022-09-12T08:11:24;1.70;;;1.60;;
19301;SDS011;9785;59.362;12.152;2022-09-12T08:13:55;1.80;;;1.50;;
19301;SDS011;9785;59.362;12.152;2022-09-12T08:16:26;3.67;;;1.40;;
19301;SDS011;9785;59.362;12.152;2022-09-12T08:18:55;1.93;;;1.50;;
19301;SDS011;9785;59.362;12.152;2022-09-12T08:21:24;2.17;;;1.60;;
19301;SDS011;9785;59.362;12.152;2022-09-12T08:23:53;1.93;;;1.57;;
19301;SDS011;9785;59.362;12.152;2022-09-12T08:26:21;2.67;;;1.30;;
19301;SDS011;9785;59.362;12.152;2022-09-12T08:28:51;1.43;;;1.33;;
19301;SDS011;9785;59.362;12.152;2022-09-12T08:31:21;3.53;;;1.50;;
19301;SDS011;9785;59.362;12.152;2022-09-12T08:33:49;6.10;;;1.40;;
19301;SDS011;9785;59.362;12.152;2022-09-12T08:36:19;1.80;;;1.27;;
19301;SDS011;9785;59.362;12.152;2022-09-12T08:38:48;2.80;;;1.33;;
19301;SDS011;9785;59.362;12.152;2022-09-12T08:41:24;1.30;;;1.30;;
19301;SDS011;9785;59.362;12.152;2022-09-12T08:47:07;2.60;;;1.40;;
19301;SDS011;9785;59.362;12.152;2022-09-12T08:49:38;1.73;;;1.40;;
19301;SDS011;9785;59.362;12.152;2022-09-12T08:52:10;2.03;;;1.40;;
19301;SDS011;9785;59.362;12.152;2022-09-12T08:54:40;3.50;;;1.40;;
19301;SDS011;9785;59.362;12.152;2022-09-12T08:57:10;3.47;;;1.10;;
19301;SDS011;9785;59.362;12.152;2022-09-12T08:59:40;2.53;;;1.30;;
19301;SDS011;9785;59.362;12.152;2022-09-12T09:02:17;1.87;;;1.10;;
19301;SDS011;9785;59.362;12.152;2022-09-12T09:04:50;1.73;;;1.30;;
19301;SDS011;9785;59.362;12.152;2022-09-12T09:07:26;1.23;;;1.13;;
19301;SDS011;9785;59.362;12.152;2022-09-12T09:09:59;1.60;;;1.20;;
19301;SDS011;9785;59.362;12.152;2022-09-12T09:12:34;2.33;;;1.30;;
19301;SDS011;9785;59.362;12.152;2022-09-12T09:15:09;1.17;;;1.10;;
19301;SDS011;9785;59.362;12.152;2022-09-12T09:17:42;1.63;;;1.27;;
19301;SDS011;9785;59.362;12.152;2022-09-12T09:20:14;1.77;;;1.10;;
19301;SDS011;9785;59.362;12.152;2022-09-12T09:22:47;3.40;;;1.33;;
19301;SDS011;9785;59.362;12.152;2022-09-12T09:25:19;2.33;;;1.20;;
19301;SDS011;9785;59.362;12.152;2022-09-12T09:27:50;4.90;;;1.10;;
19301;SDS011;9785;59.362;12.152;2022-09-12T09:30:22;1.10;;;1.10;;
19301;SDS011;9785;59.362;12.152;2022-09-12T09:32:53;1.63;;;1.00;;
19301;SDS011;9785;59.362;12.152;2022-09-12T09:35:25;2.17;;;1.00;;
19301;SDS011;9785;59.362;12.152;2022-09-12T09:38:04;1.73;;;1.00;;
19301;SDS011;9785;59.362;12.152;2022-09-12T09:40:36;1.03;;;0.90;;
19301;SDS011;9785;59.362;12.152;2022-09-12T09:43:13;0.90;;;0.90;;
19301;SDS011;9785;59.362;12.152;2022-09-12T09:45:43;0.90;;;0.90;;
19301;SDS011;9785;59.362;12.152;2022-09-12T09:48:17;0.90;;;0.90;;
19301;SDS011;9785;59.362;12.152;2022-09-12T09:50:47;4.47;;;1.17;;
19301;SDS011;9785;59.362;12.152;2022-09-12T09:53:25;1.83;;;1.00;;
19301;SDS011;9785;59.362;12.152;2022-09-12T09:55:55;1.23;;;0.93;;
19301;SDS011;9785;59.362;12.152;2022-09-12T09:58:27;0.80;;;0.80;;
19301;SDS011;9785;59.362;12.152;2022-09-12T10:01:00;3.43;;;1.43;;
19301;SDS011;9785;59.362;12.152;2022-09-12T10:03:31;0.93;;;0.93;;
19301;SDS011;9785;59.362;12.152;2022-09-12T10:06:01;1.60;;;0.90;;
19301;SDS011;9785;59.362;12.152;2022-09-12T10:08:34;0.90;;;0.90;;
19301;SDS011;9785;59.362;12.152;2022-09-12T10:11:03;1.23;;;0.90;;
19301;SDS011;9785;59.362;12.152;2022-09-12T10:13:34;0.70;;;0.70;;
19301;SDS011;9785;59.362;12.152;2022-09-12T10:16:04;1.57;;;1.23;;
19301;SDS011;9785;59.362;12.152;2022-09-12T10:18:36;1.17;;;1.00;;
19301;SDS011;9785;59.362;12.152;2022-09-12T10:21:16;1.23;;;0.87;;
19301;SDS011;9785;59.362;12.152;2022-09-12T10:23:46;1.10;;;1.00;;
19301;SDS011;9785;59.362;12.152;2022-09-12T10:26:19;1.00;;;1.00;;
19301;SDS011;9785;59.362;12.152;2022-09-12T10:28:49;1.50;;;0.80;;
19301;SDS011;9785;59.362;12.152;2022-09-12T10:31:22;1.20;;;0.80;;
19301;SDS011;9785;59.362;12.152;2022-09-12T10:33:56;0.90;;;0.90;;
19301;SDS011;9785;59.362;12.152;2022-09-12T10:36:33;1.13;;;1.07;;
19301;SDS011;9785;59.362;12.152;2022-09-12T10:39:03;0.70;;;0.63;;
19301;SDS011;9785;59.362;12.152;2022-09-12T10:41:34;0.90;;;0.90;;
19301;SDS011;9785;59.362;12.152;2022-09-12T10:44:07;0.80;;;0.80;;
19301;SDS011;9785;59.362;12.152;2022-09-12T10:46:36;0.80;;;0.80;;
19301;SDS011;9785;59.362;12.152;2022-09-12T10:49:16;1.37;;;0.80;;
19301;SDS011;9785;59.362;12.152;2022-09-12T10:51:48;0.80;;;0.80;;
19301;SDS011;9785;59.362;12.152;2022-09-12T10:54:17;1.43;;;0.90;;
19301;SDS011;9785;59.362;12.152;2022-09-12T10:59:32;1.57;;;1.00;;
19301;SDS011;9785;59.362;12.152;2022-09-12T11:02:08;1.10;;;0.77;;
19301;SDS011;9785;59.362;12.152;2022-09-12T11:04:46;2.73;;;1.00;;
19301;SDS011;9785;59.362;12.152;2022-09-12T11:07:28;0.90;;;0.90;;
19301;SDS011;9785;59.362;12.152;2022-09-12T11:10:00;1.47;;;0.87;;
19301;SDS011;9785;59.362;12.152;2022-09-12T11:12:32;0.87;;;0.80;;
19301;SDS011;9785;59.362;12.152;2022-09-12T11:15:10;1.20;;;1.10;;
19301;SDS011;9785;59.362;12.152;2022-09-12T11:17:42;0.83;;;0.80;;
19301;SDS011;9785;59.362;12.152;2022-09-12T11:20:20;5.90;;;4.33;;
19301;SDS011;9785;59.362;12.152;2022-09-12T11:23:03;1.80;;;0.90;;
19301;SDS011;9785;59.362;12.152;2022-09-12T11:25:34;1.00;;;0.70;;
19301;SDS011;9785;59.362;12.152;2022-09-12T11:28:14;2.30;;;0.90;;
19301;SDS011;9785;59.362;12.152;2022-09-12T11:30:48;0.80;;;0.80;;
19301;SDS011;9785;59.362;12.152;2022-09-12T11:33:27;2.43;;;0.90;;
19301;SDS011;9785;59.362;12.152;2022-09-12T11:36:01;0.93;;;0.93;;
19301;SDS011;9785;59.362;12.152;2022-09-12T11:38:38;0.73;;;0.73;;
19301;SDS011;9785;59.362;12.152;2022-09-12T11:41:14;2.20;;;0.90;;
19301;SDS011;9785;59.362;12.152;2022-09-12T11:43:45;0.90;;;0.90;;
19301;SDS011;9785;59.362;12.152;2022-09-12T11:46:16;0.90;;;0.90;;
19301;SDS011;9785;59.362;12.152;2022-09-12T11:48:47;0.97;;;0.90;;
19301;SDS011;9785;59.362;12.152;2022-09-12T11:51:24;0.80;;;0.77;;
19301;SDS011;9785;59.362;12.152;2022-09-12T11:53:57;0.80;;;0.80;;
19301;SDS011;9785;59.362;12.152;2022-09-12T11:56:28;1.43;;;0.83;;
19301;SDS011;9785;59.362;12.152;2022-09-12T11:58:58;0.80;;;0.80;;
19301;SDS011;9785;59.362;12.152;2022-09-12T12:01:30;0.70;;;0.70;;
19301;SDS011;9785;59.362;12.152;2022-09-12T12:04:07;0.77;;;0.77;;
19301;SDS011;9785;59.362;12.152;2022-09-12T12:06:42;0.70;;;0.70;;
19301;SDS011;9785;59.362;12.152;2022-09-12T12:09:13;0.90;;;0.90;;
19301;SDS011;9785;59.362;12.152;2022-09-12T12:11:44;0.90;;;0.90;;
19301;SDS011;9785;59.362;12.152;2022-09-12T12:14:15;0.80;;;0.80;;
19301;SDS011;9785;59.362;12.152;2022-09-12T12:16:45;1.43;;;0.90;;
19301;SDS011;9785;59.362;12.152;2022-09-12T12:19:23;0.90;;;0.90;;
19301;SDS011;9785;59.362;12.152;2022-09-12T12:21:54;1.10;;;1.00;;
19301;SDS011;9785;59.362;12.152;2022-09-12T12:24:23;0.80;;;0.80;;
19301;SDS011;9785;59.362;12.152;2022-09-12T12:26:55;0.80;;;0.80;;
19301;SDS011;9785;59.362;12.152;2022-09-12T12:29:37;1.20;;;0.90;;
19301;SDS011;9785;59.362;12.152;2022-09-12T12:32:19;1.00;;;0.70;;
19301;SDS011;9785;59.362;12.152;2022-09-12T12:34:48;0.90;;;0.90;;
19301;SDS011;9785;59.362;12.152;2022-09-12T12:40:08;0.63;;;0.63;;
19301;SDS011;9785;59.362;12.152;2022-09-12T12:45:57;0.70;;;0.70;;
19301;SDS011;9785;59.362;12.152;2022-09-12T12:48:28;1.80;;;0.90;;
19301;SDS011;9785;59.362;12.152;2022-09-12T12:51:21;2.30;;;0.70;;
19301;SDS011;9785;59.362;12.152;2022-09-12T12:53:53;1.90;;;0.90;;
19301;SDS011;9785;59.362;12.152;2022-09-12T12:56:25;0.90;;;0.90;;
19301;SDS011;9785;59.362;12.152;2022-09-12T12:58:58;1.80;;;1.00;;
19301;SDS011;9785;59.362;12.152;2022-09-12T13:01:27;0.90;;;0.70;;
19301;SDS011;9785;59.362;12.152;2022-09-12T13:03:58;1.17;;;0.70;;
19301;SDS011;9785;59.362;12.152;2022-09-12T13:06:30;0.80;;;0.80;;
19301;SDS011;9785;59.362;12.152;2022-09-12T13:09:00;0.73;;;0.70;;
19301;SDS011;9785;59.362;12.152;2022-09-12T13:11:32;1.03;;;0.80;;
19301;SDS011;9785;59.362;12.152;2022-09-12T13:14:02;1.50;;;0.80;;
19301;SDS011;9785;59.362;12.152;2022-09-12T13:16:33;1.10;;;0.80;;
19301;SDS011;9785;59.362;12.152;2022-09-12T13:19:02;0.90;;;0.90;;
19301;SDS011;9785;59.362;12.152;2022-09-12T13:21:32;1.37;;;0.90;;
19301;SDS011;9785;59.362;12.152;2022-09-12T13:24:01;0.83;;;0.70;;
19301;SDS011;9785;59.362;12.152;2022-09-12T13:26:41;0.70;;;0.70;;
19301;SDS011;9785;59.362;12.152;2022-09-12T13:29:13;2.03;;;0.80;;
19301;SDS011;9785;59.362;12.152;2022-09-12T13:31:42;0.60;;;0.60;;
19301;SDS011;9785;59.362;12.152;2022-09-12T13:34:14;1.07;;;0.60;;
19301;SDS011;9785;59.362;12.152;2022-09-12T13:36:47;0.63;;;0.63;;
19301;SDS011;9785;59.362;12.152;2022-09-12T13:39:19;0.70;;;0.70;;
19301;SDS011;9785;59.362;12.152;2022-09-12T13:42:03;0.60;;;0.60;;
19301;SDS011;9785;59.362;12.152;2022-09-12T13:44:37;0.53;;;0.53;;
19301;SDS011;9785;59.362;12.152;2022-09-12T13:47:07;0.60;;;0.60;;
19301;SDS011;9785;59.362;12.152;2022-09-12T13:49:38;0.87;;;0.60;;
19301;SDS011;9785;59.362;12.152;2022-09-12T13:52:08;0.60;;;0.60;;
19301;SDS011;9785;59.362;12.152;2022-09-12T13:54:42;0.60;;;0.60;;
19301;SDS011;9785;59.362;12.152;2022-09-12T13:57:27;0.50;;;0.50;;
19301;SDS011;9785;59.362;12.152;2022-09-12T13:59:56;0.60;;;0.60;;
19301;SDS011;9785;59.362;12.152;2022-09-12T14:02:26;0.70;;;0.70;;
19301;SDS011;9785;59.362;12.152;2022-09-12T14:04:56;0.50;;;0.50;;
19301;SDS011;9785;59.362;12.152;2022-09-12T14:07:38;0.70;;;0.70;;
19301;SDS011;9785;59.362;12.152;2022-09-12T14:10:12;0.70;;;0.70;;
19301;SDS011;9785;59.362;12.152;2022-09-12T14:12:43;0.47;;;0.47;;
19301;SDS011;9785;59.362;12.152;2022-09-12T14:15:16;0.60;;;0.60;;
19301;SDS011;9785;59.362;12.152;2022-09-12T14:17:49;0.80;;;0.80;;
19301;SDS011;9785;59.362;12.152;2022-09-12T14:20:19;0.60;;;0.60;;
19301;SDS011;9785;59.362;12.152;2022-09-12T14:22:49;0.50;;;0.50;;
19301;SDS011;9785;59.362;12.152;2022-09-12T14:25:19;1.23;;;0.60;;
19301;SDS011;9785;59.362;12.152;2022-09-12T14:27:49;0.70;;;0.70;;
19301;SDS011;9785;59.362;12.152;2022-09-12T14:30:20;0.50;;;0.50;;
19301;SDS011;9785;59.362;12.152;2022-09-12T14:33:02;0.53;;;0.53;;
19301;SDS011;9785;59.362;12.152;2022-09-12T14:35:30;0.60;;;0.60;;
19301;SDS011;9785;59.362;12.152;2022-09-12T14:38:04;0.60;;;0.60;;
19301;SDS011;9785;59.362;12.152;2022-09-12T14:40:39;0.63;;;0.63;;
19301;SDS011;9785;59.362;12.152;2022-09-12T14:43:18;0.70;;;0.70;;
19301;SDS011;9785;59.362;12.152;2022-09-12T14:45:53;0.60;;;0.60;;
19301;SDS011;9785;59.362;12.152;2022-09-12T14:48:22;0.70;;;0.60;;
19301;SDS011;9785;59.362;12.152;2022-09-12T14:50:51;0.70;;;0.70;;
19301;SDS011;9785;59.362;12.152;2022-09-12T14:53:24;0.70;;;0.70;;
19301;SDS011;9785;59.362;12.152;2022-09-12T14:55:56;0.57;;;0.57;;
19301;SDS011;9785;59.362;12.152;2022-09-12T14:58:30;0.50;;;0.50;;
19301;SDS011;9785;59.362;12.152;2022-09-12T15:00:59;0.70;;;0.70;;
19301;SDS011;9785;59.362;12.152;2022-09-12T15:03:29;1.50;;;0.87;;
19301;SDS011;9785;59.362;12.152;2022-09-12T15:05:58;2.47;;;0.60;;
19301;SDS011;9785;59.362;12.152;2022-09-12T15:08:28;0.70;;;0.70;;
19301;SDS011;9785;59.362;12.152;2022-09-12T15:10:57;0.83;;;0.83;;
19301;SDS011;9785;59.362;12.152;2022-09-12T15:13:27;0.60;;;0.60;;
19301;SDS011;9785;59.362;12.152;2022-09-12T15:15:58;0.70;;;0.70;;
19301;SDS011;9785;59.362;12.152;2022-09-12T15:18:27;0.70;;;0.70;;
19301;SDS011;9785;59.362;12.152;2022-09-12T15:20:56;0.80;;;0.80;;
19301;SDS011;9785;59.362;12.152;2022-09-12T15:23:34;0.93;;;0.80;;
19301;SDS011;9785;59.362;12.152;2022-09-12T15:26:05;0.87;;;0.87;;
19301;SDS011;9785;59.362;12.152;2022-09-12T15:28:35;0.93;;;0.90;;
19301;SDS011;9785;59.362;12.152;2022-09-12T15:31:05;0.70;;;0.70;;